Flight Track Log - Related Links

Times and Time Zones

All times are in EDT time to prevent confusion due to time zone crossing. See the SWA385 flight status page for this flight to view local times or setup timezone preferences in your user account.

Time Position Orientation Groundspeed Altitude Reporting Facility
EDT Latitude Longitude Course Direction KTS MPH feet Rate Location/Type
Sat 12:00:58 AM 38.6667 -121.5833 109° East 183 211 1,900  Level Northern Cal TRACON
Sat 12:03:08 AM 38.5808 -121.4150 123° Southeast 275 316 10,100 3,707 Climbing Oakland Center
Sat 12:04:09 AM 38.5339 -121.3158 121° Southeast 324 373 13,700 3,787 Climbing Oakland Center
Sat 12:05:10 AM 38.4814 -121.2078 122° Southeast 358 412 17,800 3,738 Climbing Oakland Center
Sat 12:06:00 AM 38.3088 -120.9880 109° East  Level FlightAware Approximate
Sat 12:06:11 AM 38.4308 -121.1006 121° Southeast 370 426 21,300  Level Oakland Center
Sat 12:07:12 AM 38.3742 -120.9811 121° Southeast 394 453 24,600 3,000 Climbing Oakland Center
Sat 12:08:13 AM 38.3147 -120.8564 121° Southeast 409 471 27,400 2,557 Climbing Oakland Center
Sat 12:09:14 AM 38.2519 -120.7267 122° Southeast 428 493 29,800 1,770 Climbing Oakland Center
Sat 12:10:15 AM 38.1653 -120.6161 135° Southeast 440 506 31,000 590 Climbing Oakland Center
Sat 12:11:16 AM 38.0675 -120.5211 143° Southeast 441 507 31,000  Level Oakland Center
Sat 12:12:17 AM 37.9508 -120.4089 143° Southeast 439 505 31,000  Level Oakland Center
Sat 12:13:18 AM 37.8567 -120.3142 142° Southeast 433 498 31,000  Level Oakland Center
Sat 12:14:19 AM 37.7608 -120.2219 143° Southeast 432 497 31,000 885 Level Oakland Center
Sat 12:15:20 AM 37.6628 -120.1278 143° Southeast 437 503 32,800 1,869 Climbing Oakland Center
Sat 12:16:21 AM 37.5672 -120.0353 142° Southeast 436 502 34,800 1,082 Climbing Oakland Center
Sat 12:17:22 AM 37.4736 -119.9458 143° Southeast 427 491 35,000 98 Climbing Oakland Center
Sat 12:18:24 AM 37.3792 -119.8553 143° Southeast 425 489 35,000 780 Level Oakland Center
Sat 12:19:25 AM 37.2811 -119.7689 145° Southeast 427 491 36,600 1,512 Climbing Oakland Center
Sat 12:20:27 AM 37.1714 -119.7531 173° South 399 459 38,100 1,525 Climbing Oakland Center
Sat 12:21:27 AM 37.0617 -119.7400 175° South 396 456 39,700 1,339 Climbing Oakland Center
Sat 12:22:28 AM 36.9525 -119.7281 175° South 396 456 40,800 639 Climbing Oakland Center
Sat 12:23:29 AM 36.8414 -119.7144 174° South 398 458 41,000 98 Climbing Oakland Center
Sat 12:24:30 AM 36.7308 -119.7022 175° South 398 458 41,000  Level Oakland Center
Sat 12:25:31 AM 36.5978 -119.6878 175° South 398 458 41,000  Level Oakland Center
Sat 12:26:32 AM 36.4858 -119.6744 175° South 401 461 41,000  Level Oakland Center
Sat 12:27:33 AM 36.3747 -119.6608 174° South 401 461 41,000  Level Oakland Center
Sat 12:28:34 AM 36.2636 -119.6492 175° South 400 460 41,000  Level Oakland Center
Sat 12:29:35 AM 36.1517 -119.6353 174° South 401 461 41,000  Level Oakland Center
Sat 12:30:36 AM 36.0400 -119.6217 174° South 402 463 41,000  Level Oakland Center
Sat 12:31:37 AM 35.9272 -119.6158 178° South 404 465 41,000  Level Oakland Center
Sat 12:32:38 AM 35.8142 -119.6206 182° South 404 465 41,000  Level Oakland Center
Sat 12:33:39 AM 35.7022 -119.6242 182° South 401 461 41,000  Level Oakland Center
Sat 12:34:41 AM 35.5892 -119.6281 182° South 402 463 41,000  Level Oakland Center
Sat 12:35:42 AM 35.4808 -119.5928 165° South 400 460 41,000  Level Oakland Center
Sat 12:36:43 AM 35.3753 -119.5325 155° Southeast 411 473 41,000  Level Oakland Center
Sat 12:37:44 AM 35.2711 -119.4753 156° South 410 472 41,000  Level Oakland Center
Sat 12:38:45 AM 35.1669 -119.4161 155° Southeast 410 472 41,000  Level Oakland Center
Sat 12:39:46 AM 35.0400 -119.3447 155° Southeast 414 476 41,000 -443 Level Oakland Center
Sat 12:40:47 AM 34.9367 -119.2861 155° Southeast 410 472 40,100 -1,131 Descending Oakland Center
Sat 12:41:48 AM 34.8342 -119.2286 155° Southeast 407 468 38,700 -1,820 Descending Oakland Center
Sat 12:42:49 AM 34.7297 -119.1711 156° South 409 471 36,400 -2,698 Descending Oakland Center
Sat 12:44:17 AM 34.5867 -119.0925 156° South 412 474 32,000 -2,859 Descending Los Angeles Center
Sat 12:45:18 AM 34.4828 -119.0372 156° South 408 470 29,300 -2,829 Descending Los Angeles Center
Sat 12:46:20 AM 34.3633 -118.9706 155° Southeast 397 457 26,200 -2,732 Descending Los Angeles Center
Sat 12:47:21 AM 34.2642 -118.9144 155° Southeast 395 455 23,700 -2,439 Descending Los Angeles Center
Sat 12:48:23 AM 34.1694 -118.8608 155° Southeast 377 434 21,200 -2,390 Descending Los Angeles Center
Sat 12:49:24 AM 34.0747 -118.8094 156° South 373 429 18,800 -2,488 Descending Los Angeles Center
Sat 12:50:26 AM 33.9775 -118.7575 156° South 364 419 16,100 -2,293 Descending Los Angeles Center
Sat 12:51:27 AM 33.8822 -118.7061 156° South 350 403 14,100 -1,024 Descending Los Angeles Center
Sat 12:52:29 AM 33.8025 -118.6789 164° South 348 400 14,000 -683 Descending Los Angeles Center
Sat 12:53:30 AM 33.6922 -118.6389 163° South 349 402 12,700 -1,610 Descending Los Angeles Center
Sat 12:54:32 AM 33.6053 -118.5939 157° South 346 398 10,700 -1,561 Descending Los Angeles Center
Sat 12:55:33 AM 33.5447 -118.5214 135° Southeast 332 382 9,500 -1,268 Descending Los Angeles Center
Sat 12:56:35 AM 33.5525 -118.4247 84° East 303 349 8,100 -1,415 Descending Los Angeles Center
Sat 12:57:36 AM 33.5594 -118.3317 85° East 291 335 6,600 -1,475 Descending Los Angeles Center
Sat 12:58:37 AM 33.5886 -118.2497 67° East 280 322 5,100 -1,073 Descending Los Angeles Center
Sat 12:59:39 AM 33.6353 -118.1572 59° Northeast 276 318 4,400 -882 Descending Los Angeles Center
Sat 01:00:19 AM 33.6667 -118.1000 57° Northeast 272 313 3,600 -792 Descending Southern California TRACON
Sat 01:01:25 AM 33.7000 -118.0333 59° Northeast 240 276 3,000 -286 Descending Southern California TRACON
Sat 01:02:25 AM 33.7333 -117.9667 59° Northeast 227 261 3,000  Level Southern California TRACON
Sat 01:03:26 AM 33.7667 -117.9000 59° Northeast 208 239 3,000 50 Level Southern California TRACON
Sat 01:04:26 AM 33.8167 -117.8667 29° Northeast 198 228 3,100 -250 Climbing Southern California TRACON
Sat 01:05:26 AM 33.8167 -117.8167 90° East 173 199 2,500 -500 Descending Southern California TRACON
Sat 01:06:26 AM 33.7667 -117.8000 165° South 155 178 2,100 -550 Descending Southern California TRACON
Sat 01:07:26 AM 33.7333 -117.8333 220° Southwest 129 148 1,400 -650 Descending Southern California TRACON
Sat 01:08:26 AM 33.7167 -117.8500 220° Southwest 116 133 800 -600 Descending Southern California TRACON
Sat 01:09:26 AM 33.6833 -117.8667 203° Southwest 112 129 200 -600 Descending Southern California TRACON

Login

Don't have an account? Register now (free) for customized features, flight alerts, and more!